Ship Status Report: callsign BAREU62

sailwx.info

Track history (hours):
 
Tides and Currents Weather Stations Pressure Air Temp Water Temp Dewpoint Dewpoint Depression Visibility Wind Speed Wind Dir Waves Ship Positions

Callsign BAREU62 (name unknown)

Last reported at 2017-Sep-23 05:00 UTC. Time now 2017-Sep-25 01:08 UTC.
Position N 43°42' E 013°36'.

Barometer 1021.0 mb

Date/timePositionNaut miles runAvg speedWind from/ knotsBaromVisibWave heightAir tempDewpointWater temp
2017-Sep-23 05:00N 43°42' E 013°36'1110.5 1021.0
2017-Sep-23 04:00N 43°48' E 013°48'7 7.4 1020.8
2017-Sep-23 03:00N 43°54' E 013°42'1110.5 1021.2
2017-Sep-23 02:00N 44°00' E 013°30'1514.8 1021.3
2017-Sep-23 01:00N 44°12' E 013°18'7 7.4 1021.4
2017-Sep-23 00:00N 44°18' E 013°12'1312.7 1021.6
2017-Sep-22 23:00N 44°30' E 013°06'7 7.4 1021.4
2017-Sep-22 22:00N 44°36' E 013°00'1312.7 1021.6
2017-Sep-22 21:00N 44°48' E 012°54'1312.7 1021.4
2017-Sep-22 20:00N 45°00' E 012°48'7 7.3 1021.2
2017-Sep-22 19:00N 45°06' E 012°42'1010.4 1021.2
2017-Sep-22 18:00N 45°12' E 012°30'1010.4 1020.6
2017-Sep-22 17:00N 45°18' E 012°18'12 0.5 1020.5
2017-Sep-21 19:00N 45°30' E 012°18'0 0.0 1018.8
2017-Sep-21 05:00N 45°30' E 012°18'1212.0 1018.4
2017-Sep-21 04:00N 45°18' E 012°18'8 8.4 1018.2
2017-Sep-21 03:00N 45°18' E 012°30'4 4.2 1018.3
2017-Sep-21 02:00N 45°18' E 012°36'0 0.0
2017-Sep-21 01:00N 45°18' E 012°36'4 4.2
2017-Sep-21 00:00N 45°18' E 012°42'1010.3 1018.6
2017-Sep-20 23:00N 45°24' E 012°54'1010.3 1018.4
2017-Sep-20 22:00N 45°30' E 013°06'1414.0 1018.3
2017-Sep-20 21:00N 45°36' E 013°24'8 8.4 1018.1
2017-Sep-20 20:00N 45°36' E 013°36'   1017.8
2017-Sep-18 05:00N 45°36' E 013°42'   1014.3
2017-Sep-13 21:00N 45°36' E 013°36'1010.3 1019.0
2017-Sep-13 20:00N 45°30' E 013°24'1010.3 1018.9
2017-Sep-13 19:00N 45°24' E 013°12'1312.7 1018.8
2017-Sep-13 18:00N 45°12' E 013°18'1312.7 1018.5
2017-Sep-13 17:00N 45°00' E 013°24'1312.7 1018.4
2017-Sep-13 16:00N 44°48' E 013°30'7 7.4 1018.6
2017-Sep-13 15:00N 44°42' E 013°36'1514.7 1019.0
2017-Sep-13 14:00N 44°30' E 013°48'1312.7 1019.4
2017-Sep-13 13:00N 44°18' E 013°54'1010.5 1019.3
2017-Sep-13 12:00N 44°12' E 014°06'1312.8 1019.6
2017-Sep-13 11:00N 44°00' E 014°12'1110.5 1019.8
2017-Sep-13 10:00N 43°54' E 014°24'1514.8 1019.6
2017-Sep-13 09:00N 43°42' E 014°36'7 7.4 1019.2
2017-Sep-13 08:00N 43°36' E 014°42'1514.8 1018.6
2017-Sep-13 07:00N 43°24' E 014°54'7 7.4 1017.6
2017-Sep-13 06:00N 43°18' E 015°00'1514.8 1016.7
2017-Sep-13 05:00N 43°06' E 015°12'   1016.6
Track history (hours):
 
Tides and Currents Weather Stations Pressure Air Temp Water Temp Dewpoint Dewpoint Depression Visibility Wind Speed Wind Dir Waves Ship Positions

Callsign BAREU62 (name unknown)

Last reported at 2017-Sep-23 05:00 UTC. Time now 2017-Sep-25 01:08 UTC.
Position N 43°42' E 013°36'.

Barometer 1021.0 mb

Date/timePositionNaut miles runAvg speedWind from/ knotsBaromVisibWave heightAir tempDewpointWater temp
2017-Sep-23 05:00N 43°42' E 013°36'1110.5 1021.0
2017-Sep-23 04:00N 43°48' E 013°48'7 7.4 1020.8
2017-Sep-23 03:00N 43°54' E 013°42'1110.5 1021.2
2017-Sep-23 02:00N 44°00' E 013°30'1514.8 1021.3
2017-Sep-23 01:00N 44°12' E 013°18'7 7.4 1021.4
2017-Sep-23 00:00N 44°18' E 013°12'1312.7 1021.6
2017-Sep-22 23:00N 44°30' E 013°06'7 7.4 1021.4
2017-Sep-22 22:00N 44°36' E 013°00'1312.7 1021.6
2017-Sep-22 21:00N 44°48' E 012°54'1312.7 1021.4
2017-Sep-22 20:00N 45°00' E 012°48'7 7.3 1021.2
2017-Sep-22 19:00N 45°06' E 012°42'1010.4 1021.2
2017-Sep-22 18:00N 45°12' E 012°30'1010.4 1020.6
2017-Sep-22 17:00N 45°18' E 012°18'12 0.5 1020.5
2017-Sep-21 19:00N 45°30' E 012°18'0 0.0 1018.8
2017-Sep-21 05:00N 45°30' E 012°18'1212.0 1018.4
2017-Sep-21 04:00N 45°18' E 012°18'8 8.4 1018.2
2017-Sep-21 03:00N 45°18' E 012°30'4 4.2 1018.3
2017-Sep-21 02:00N 45°18' E 012°36'0 0.0
2017-Sep-21 01:00N 45°18' E 012°36'4 4.2
2017-Sep-21 00:00N 45°18' E 012°42'1010.3 1018.6
2017-Sep-20 23:00N 45°24' E 012°54'1010.3 1018.4
2017-Sep-20 22:00N 45°30' E 013°06'1414.0 1018.3
2017-Sep-20 21:00N 45°36' E 013°24'8 8.4 1018.1
2017-Sep-20 20:00N 45°36' E 013°36'   1017.8
2017-Sep-18 05:00N 45°36' E 013°42'   1014.3
2017-Sep-13 21:00N 45°36' E 013°36'1010.3 1019.0
2017-Sep-13 20:00N 45°30' E 013°24'1010.3 1018.9
2017-Sep-13 19:00N 45°24' E 013°12'1312.7 1018.8
2017-Sep-13 18:00N 45°12' E 013°18'1312.7 1018.5
2017-Sep-13 17:00N 45°00' E 013°24'1312.7 1018.4
2017-Sep-13 16:00N 44°48' E 013°30'7 7.4 1018.6
2017-Sep-13 15:00N 44°42' E 013°36'1514.7 1019.0
2017-Sep-13 14:00N 44°30' E 013°48'1312.7 1019.4
2017-Sep-13 13:00N 44°18' E 013°54'1010.5 1019.3
2017-Sep-13 12:00N 44°12' E 014°06'1312.8 1019.6
2017-Sep-13 11:00N 44°00' E 014°12'1110.5 1019.8
2017-Sep-13 10:00N 43°54' E 014°24'1514.8 1019.6
2017-Sep-13 09:00N 43°42' E 014°36'7 7.4 1019.2
2017-Sep-13 08:00N 43°36' E 014°42'1514.8 1018.6
2017-Sep-13 07:00N 43°24' E 014°54'7 7.4 1017.6
2017-Sep-13 06:00N 43°18' E 015°00'1514.8 1016.7
2017-Sep-13 05:00N 43°06' E 015°12'   1016.6

Dump ship's entire track history